createdAt,value
2023-06-17T00:01:55.106Z,20.70
2023-06-17T00:04:42.668Z,20.70
2023-06-17T00:07:30.652Z,20.60
2023-06-17T00:10:18.581Z,20.70
2023-06-17T00:13:08.869Z,20.70
2023-06-17T00:16:00.744Z,20.70
2023-06-17T00:18:49.239Z,20.70
2023-06-17T00:21:36.807Z,20.70
2023-06-17T00:24:24.426Z,20.70
2023-06-17T00:27:11.974Z,20.70
2023-06-17T00:30:01.169Z,20.70
2023-06-17T00:32:48.858Z,20.60
2023-06-17T00:35:36.648Z,20.60
2023-06-17T00:38:24.176Z,20.60
2023-06-17T00:41:11.707Z,20.60
2023-06-17T00:43:59.162Z,20.60
2023-06-17T00:46:54.504Z,20.60
2023-06-17T00:49:45.238Z,20.60
2023-06-17T00:52:42.206Z,20.60
2023-06-17T00:55:31.547Z,20.60
2023-06-17T00:58:19.905Z,20.60
2023-06-17T01:01:07.431Z,20.70
2023-06-17T01:03:55.522Z,20.70
2023-06-17T01:06:57.065Z,20.70
2023-06-17T01:09:54.479Z,20.80
2023-06-17T01:12:44.206Z,20.80
2023-06-17T01:15:36.061Z,20.80
2023-06-17T01:18:24.261Z,20.70
2023-06-17T01:21:13.825Z,20.70
2023-06-17T01:24:03.566Z,20.70
2023-06-17T01:26:56.615Z,20.80
2023-06-17T01:29:44.325Z,20.80
2023-06-17T01:32:31.925Z,20.80
2023-06-17T01:35:19.712Z,20.90
2023-06-17T01:38:19.065Z,20.90
2023-06-17T01:41:30.893Z,20.90
2023-06-17T01:44:20.952Z,20.90
2023-06-17T01:47:11.590Z,21.00
2023-06-17T01:50:02.256Z,20.90
2023-06-17T01:52:49.846Z,20.90
2023-06-17T01:55:37.359Z,20.80
2023-06-17T01:58:25.278Z,20.80
2023-06-17T02:01:12.935Z,20.80
2023-06-17T02:04:00.803Z,20.90
2023-06-17T02:06:48.419Z,21.00
2023-06-17T02:09:35.981Z,20.90
2023-06-17T02:12:23.907Z,20.80
2023-06-17T02:15:12.420Z,20.90
2023-06-17T02:18:00.485Z,21.00
2023-06-17T02:20:48.193Z,21.00
2023-06-17T02:23:36.306Z,21.10
2023-06-17T02:26:24.233Z,21.10
2023-06-17T02:29:12.021Z,21.10
2023-06-17T02:31:59.519Z,21.00
2023-06-17T02:34:49.280Z,21.00
2023-06-17T02:37:37.469Z,21.00
2023-06-17T02:40:25.066Z,20.70
2023-06-17T02:43:12.551Z,20.80
2023-06-17T02:46:00.049Z,20.70
2023-06-17T02:48:47.580Z,21.00
2023-06-17T02:51:35.434Z,20.90
2023-06-17T02:54:22.988Z,20.80
2023-06-17T02:57:10.822Z,20.80
2023-06-17T02:59:59.162Z,21.00
2023-06-17T03:02:46.908Z,20.80
2023-06-17T03:05:34.527Z,20.70
2023-06-17T03:08:22.027Z,20.90
2023-06-17T03:11:10.322Z,21.00
2023-06-17T03:13:58.154Z,21.00
2023-06-17T03:16:45.772Z,21.00
2023-06-17T03:19:33.505Z,21.00
2023-06-17T03:22:21.109Z,21.00
2023-06-17T03:25:08.980Z,21.10
2023-06-17T03:27:57.229Z,21.20
2023-06-17T03:30:45.444Z,21.00
2023-06-17T03:33:32.960Z,21.20
2023-06-17T03:36:25.870Z,21.40
2023-06-17T03:39:13.374Z,21.30
2023-06-17T03:42:00.987Z,21.30
2023-06-17T03:44:48.466Z,21.30
2023-06-17T03:47:36.053Z,21.40
2023-06-17T03:50:23.816Z,21.50
2023-06-17T03:53:11.648Z,21.50
2023-06-17T03:55:59.327Z,21.40
2023-06-17T03:58:46.901Z,21.40
2023-06-17T04:01:34.478Z,21.40
2023-06-17T04:04:22.040Z,21.60
2023-06-17T04:07:09.971Z,21.80
2023-06-17T04:10:06.501Z,21.70
2023-06-17T04:12:55.154Z,21.90
2023-06-17T04:15:43.724Z,21.90
2023-06-17T04:18:31.543Z,21.90
2023-06-17T04:21:19.174Z,21.90
2023-06-17T04:24:06.820Z,22.00
2023-06-17T04:26:55.329Z,22.20
2023-06-17T04:29:44.024Z,22.20
2023-06-17T04:32:31.582Z,22.20
2023-06-17T04:35:20.217Z,22.00
2023-06-17T04:38:08.662Z,22.00
2023-06-17T04:40:56.217Z,22.10
2023-06-17T04:43:46.630Z,21.80
2023-06-17T04:46:34.135Z,22.00
2023-06-17T04:49:22.355Z,22.00
2023-06-17T04:52:10.007Z,21.80
2023-06-17T04:54:57.658Z,21.60
2023-06-17T04:57:46.177Z,21.80
2023-06-17T05:00:33.786Z,21.90
2023-06-17T05:03:21.267Z,22.10
2023-06-17T05:06:08.871Z,22.10
2023-06-17T05:08:56.374Z,22.10
2023-06-17T05:11:43.985Z,22.40
2023-06-17T05:14:31.498Z,22.00
2023-06-17T05:17:19.015Z,22.70
2023-06-17T05:20:07.535Z,22.40
2023-06-17T05:22:55.036Z,22.30
2023-06-17T05:25:42.581Z,22.20
2023-06-17T05:28:30.174Z,22.40
2023-06-17T05:31:17.950Z,22.50
2023-06-17T05:34:05.689Z,22.30
2023-06-17T05:36:53.178Z,22.30
2023-06-17T05:39:40.855Z,22.30
2023-06-17T05:42:28.316Z,22.30
2023-06-17T05:45:15.972Z,22.70
2023-06-17T05:48:03.707Z,22.80
2023-06-17T05:50:51.347Z,23.20
2023-06-17T05:53:38.835Z,23.20
2023-06-17T05:56:27.359Z,23.20
2023-06-17T05:59:17.360Z,23.30
2023-06-17T06:02:06.668Z,23.50
2023-06-17T06:04:54.230Z,23.90
2023-06-17T06:07:44.869Z,24.10
2023-06-17T06:10:32.477Z,23.70
2023-06-17T06:13:20.067Z,23.80
2023-06-17T06:16:07.587Z,24.10
2023-06-17T06:18:55.115Z,23.70
2023-06-17T06:21:42.637Z,23.80
2023-06-17T06:24:30.314Z,24.30
2023-06-17T06:27:17.950Z,24.10
2023-06-17T06:30:06.501Z,24.90
2023-06-17T06:32:54.045Z,25.30
2023-06-17T06:35:43.889Z,25.30
2023-06-17T06:38:31.365Z,25.00
2023-06-17T06:41:18.922Z,25.50
2023-06-17T06:44:06.442Z,25.50
2023-06-17T06:46:57.297Z,25.20
2023-06-17T06:49:44.914Z,25.30
2023-06-17T06:52:32.714Z,25.50
2023-06-17T06:55:20.297Z,25.30
2023-06-17T06:58:07.877Z,25.10
2023-06-17T07:00:55.427Z,25.50
2023-06-17T07:03:43.209Z,25.60
2023-06-17T07:06:31.709Z,25.90
2023-06-17T07:09:19.254Z,25.60
2023-06-17T07:12:08.156Z,25.80
2023-06-17T07:14:56.586Z,26.20
2023-06-17T07:17:44.180Z,25.90
2023-06-17T07:20:31.703Z,25.80
2023-06-17T07:23:19.631Z,26.40
2023-06-17T07:26:08.006Z,26.30
2023-06-17T07:28:55.828Z,25.70
2023-06-17T07:31:43.932Z,26.00
2023-06-17T07:34:31.586Z,26.60
2023-06-17T07:37:19.077Z,26.50
2023-06-17T07:40:07.740Z,26.00
2023-06-17T07:42:55.301Z,26.50
2023-06-17T07:45:42.789Z,26.40
2023-06-17T07:48:32.986Z,26.30
2023-06-17T07:51:20.680Z,26.80
2023-06-17T07:54:08.250Z,26.10
2023-06-17T07:56:55.726Z,26.30
2023-06-17T07:59:44.316Z,26.30
2023-06-17T08:02:32.447Z,26.10
2023-06-17T08:05:20.092Z,26.80
2023-06-17T08:08:07.621Z,26.10
2023-06-17T08:10:55.103Z,27.00
2023-06-17T08:13:42.684Z,27.10
2023-06-17T08:16:30.265Z,27.30
2023-06-17T08:19:17.738Z,27.80
2023-06-17T08:22:05.979Z,27.80
2023-06-17T08:24:53.713Z,28.10
2023-06-17T08:27:43.884Z,27.40
2023-06-17T08:30:31.566Z,27.40
2023-06-17T08:33:19.275Z,27.60
2023-06-17T08:36:06.980Z,28.00
2023-06-17T08:38:54.478Z,27.50
2023-06-17T08:41:43.864Z,28.30
2023-06-17T08:44:37.224Z,27.90
2023-06-17T08:47:27.287Z,28.50
2023-06-17T08:50:15.309Z,28.70
2023-06-17T08:53:03.538Z,28.80
2023-06-17T08:55:51.101Z,28.60
2023-06-17T08:58:40.471Z,28.00
2023-06-17T09:01:29.295Z,27.80
2023-06-17T09:04:18.920Z,28.00
2023-06-17T09:07:09.781Z,28.80
2023-06-17T09:10:09.846Z,28.50
2023-06-17T09:13:01.165Z,28.80
2023-06-17T09:15:48.636Z,28.70
2023-06-17T09:18:36.958Z,29.30
2023-06-17T09:21:27.241Z,30.00
2023-06-17T09:24:14.984Z,29.20
2023-06-17T09:27:03.644Z,29.30
2023-06-17T09:30:14.694Z,28.90
2023-06-17T09:33:03.246Z,29.00
2023-06-17T09:36:09.927Z,29.20
2023-06-17T09:38:57.693Z,29.00
2023-06-17T09:41:46.382Z,28.30
2023-06-17T09:44:34.711Z,28.30
2023-06-17T09:47:36.842Z,28.60
2023-06-17T09:50:26.415Z,28.90
2023-06-17T09:53:15.379Z,28.60
2023-06-17T09:56:03.632Z,28.70
2023-06-17T09:58:54.603Z,28.00
2023-06-17T10:01:42.196Z,28.50
2023-06-17T10:04:29.735Z,28.10
2023-06-17T10:07:20.226Z,28.90
2023-06-17T10:10:11.740Z,28.10
2023-06-17T10:13:05.093Z,29.30
2023-06-17T10:15:54.570Z,29.60
2023-06-17T10:18:46.102Z,30.00
2023-06-17T10:21:39.489Z,29.30
2023-06-17T10:24:28.123Z,30.70
2023-06-17T10:27:15.913Z,30.90
2023-06-17T10:30:26.914Z,30.10
2023-06-17T10:33:14.544Z,30.10
2023-06-17T10:36:09.031Z,30.10
2023-06-17T10:39:08.209Z,30.40
2023-06-17T10:42:01.163Z,29.90
2023-06-17T10:44:51.725Z,30.40
2023-06-17T10:47:39.215Z,29.70
2023-06-17T10:50:27.331Z,30.10
2023-06-17T10:53:18.555Z,30.10
2023-06-17T10:56:08.218Z,30.40
2023-06-17T10:58:55.912Z,30.40
2023-06-17T11:01:43.455Z,31.50
2023-06-17T11:04:33.295Z,31.10
2023-06-17T11:07:27.717Z,30.70
2023-06-17T11:10:15.405Z,31.10
2023-06-17T11:13:03.021Z,31.00
2023-06-17T11:15:56.715Z,31.00
2023-06-17T11:18:46.114Z,31.20
2023-06-17T11:21:33.629Z,31.30
2023-06-17T11:24:21.363Z,31.90
2023-06-17T11:27:12.051Z,32.40
2023-06-17T11:30:00.241Z,32.80
2023-06-17T11:32:50.205Z,32.30
2023-06-17T11:35:38.867Z,32.10
2023-06-17T11:38:28.109Z,31.50
2023-06-17T11:41:16.572Z,31.90
2023-06-17T11:44:04.754Z,31.90
2023-06-17T11:46:57.663Z,31.80
2023-06-17T11:49:46.588Z,32.70
2023-06-17T11:52:37.585Z,32.50
2023-06-17T11:55:36.971Z,32.60
2023-06-17T11:58:26.939Z,32.20
2023-06-17T12:01:15.969Z,32.40
2023-06-17T12:04:04.005Z,32.20
2023-06-17T12:06:51.658Z,32.40
2023-06-17T12:09:55.949Z,32.60
2023-06-17T12:12:44.580Z,32.40
2023-06-17T12:15:36.702Z,31.50
2023-06-17T12:18:29.986Z,32.10
2023-06-17T12:21:20.373Z,32.70
2023-06-17T12:24:08.975Z,32.80
2023-06-17T12:26:56.601Z,32.90
2023-06-17T12:29:46.877Z,32.40
2023-06-17T12:32:35.504Z,31.70
2023-06-17T12:35:24.074Z,32.20
2023-06-17T12:38:11.741Z,31.70
2023-06-17T12:41:00.910Z,32.20
2023-06-17T12:43:49.634Z,32.50
2023-06-17T12:46:39.196Z,32.80
2023-06-17T12:49:26.867Z,32.50
2023-06-17T12:52:15.228Z,33.50
2023-06-17T12:55:06.199Z,33.20
2023-06-17T12:57:53.923Z,33.10
2023-06-17T13:00:41.453Z,32.90
2023-06-17T13:03:28.908Z,32.90
2023-06-17T13:06:16.747Z,33.10
2023-06-17T13:09:05.317Z,33.10
2023-06-17T13:11:53.281Z,33.20
2023-06-17T13:14:41.371Z,33.80
2023-06-17T13:17:28.928Z,32.30
2023-06-17T13:20:16.727Z,32.00
2023-06-17T13:23:05.669Z,31.90
2023-06-17T13:25:54.978Z,32.00
2023-06-17T13:28:42.452Z,32.30
2023-06-17T13:31:30.322Z,32.10
2023-06-17T13:34:19.222Z,31.80
2023-06-17T13:37:07.162Z,32.20
2023-06-17T13:39:55.430Z,32.00
2023-06-17T13:42:43.063Z,32.20
2023-06-17T13:45:30.590Z,31.90
2023-06-17T13:48:18.926Z,32.00
2023-06-17T13:51:06.436Z,32.10
2023-06-17T13:53:53.932Z,31.50
2023-06-17T13:56:41.635Z,31.50
2023-06-17T13:59:29.124Z,30.40
2023-06-17T14:02:16.825Z,30.30
2023-06-17T14:05:04.796Z,29.70
2023-06-17T14:07:52.296Z,30.40
2023-06-17T14:10:39.847Z,30.90
2023-06-17T14:13:27.360Z,31.60
2023-06-17T14:16:15.245Z,30.70
2023-06-17T14:19:02.837Z,31.20
2023-06-17T14:22:08.234Z,30.90
2023-06-17T14:24:55.833Z,31.60
2023-06-17T14:27:44.612Z,31.40
2023-06-17T14:30:32.143Z,32.00
2023-06-17T14:33:19.984Z,32.30
2023-06-17T14:36:07.647Z,31.90
2023-06-17T14:38:56.578Z,32.00
2023-06-17T14:41:44.057Z,32.00
2023-06-17T14:44:31.550Z,31.70
2023-06-17T14:47:21.615Z,31.50
2023-06-17T14:50:14.631Z,31.60
2023-06-17T14:53:02.121Z,32.30
2023-06-17T14:55:51.076Z,32.60
2023-06-17T14:58:38.577Z,32.70
2023-06-17T15:01:33.820Z,32.20
2023-06-17T15:04:21.619Z,33.00
2023-06-17T15:07:09.217Z,32.60
2023-06-17T15:09:56.782Z,33.10
2023-06-17T15:12:45.405Z,32.70
2023-06-17T15:15:32.958Z,33.00
2023-06-17T15:18:20.541Z,32.40
2023-06-17T15:21:08.051Z,33.10
2023-06-17T15:23:55.758Z,33.20
2023-06-17T15:26:44.397Z,32.60
2023-06-17T15:29:31.866Z,32.20
2023-06-17T15:32:21.322Z,32.00
2023-06-17T15:35:11.192Z,31.50
2023-06-17T15:37:58.683Z,31.40
2023-06-17T15:40:46.573Z,31.90
2023-06-17T15:43:34.117Z,31.90
2023-06-17T15:46:21.702Z,32.00
2023-06-17T15:49:10.102Z,32.10
2023-06-17T15:51:57.641Z,32.00
2023-06-17T15:54:45.155Z,32.10
2023-06-17T15:57:32.663Z,32.20
2023-06-17T16:00:20.452Z,32.30
2023-06-17T16:03:08.455Z,33.30
2023-06-17T16:05:56.923Z,32.50
2023-06-17T16:08:46.456Z,31.80
2023-06-17T16:11:34.002Z,31.60
2023-06-17T16:14:21.550Z,32.20
2023-06-17T16:17:10.967Z,32.70
2023-06-17T16:19:59.343Z,32.30
2023-06-17T16:22:46.989Z,32.10
2023-06-17T16:25:45.087Z,32.40
2023-06-17T16:28:42.195Z,31.60
2023-06-17T16:31:29.819Z,31.80
2023-06-17T16:34:17.786Z,31.90
2023-06-17T16:37:06.058Z,32.00
2023-06-17T16:39:53.688Z,31.70
2023-06-17T16:42:41.350Z,31.40
2023-06-17T16:45:29.116Z,32.50
2023-06-17T16:48:16.988Z,32.20
2023-06-17T16:51:07.203Z,32.60
2023-06-17T16:53:54.998Z,33.00
2023-06-17T16:56:42.556Z,32.60
2023-06-17T16:59:30.152Z,32.60
2023-06-17T17:02:17.722Z,32.80
2023-06-17T17:05:05.974Z,33.30
2023-06-17T17:07:54.288Z,32.90
2023-06-17T17:10:42.089Z,33.60
2023-06-17T17:13:43.661Z,34.00
2023-06-17T17:16:36.773Z,33.90
2023-06-17T17:19:24.290Z,33.50
2023-06-17T17:22:11.844Z,33.10
2023-06-17T17:24:59.313Z,33.40
2023-06-17T17:27:46.999Z,33.70
2023-06-17T17:30:34.500Z,33.50
2023-06-17T17:33:23.834Z,33.30
2023-06-17T17:36:13.869Z,33.40
2023-06-17T17:39:01.443Z,33.10
2023-06-17T17:41:48.896Z,33.40
2023-06-17T17:44:36.481Z,33.00
2023-06-17T17:47:24.029Z,32.90
2023-06-17T17:50:13.623Z,32.80
2023-06-17T17:53:01.517Z,33.00
2023-06-17T17:55:49.034Z,32.80
2023-06-17T17:58:36.983Z,32.50
2023-06-17T18:01:24.546Z,32.20
2023-06-17T18:04:12.195Z,31.70
2023-06-17T18:06:59.714Z,31.30
2023-06-17T18:09:47.862Z,31.20
2023-06-17T18:12:35.451Z,31.30
2023-06-17T18:15:24.432Z,31.10
2023-06-17T18:18:12.009Z,31.10
2023-06-17T18:20:59.627Z,31.00
2023-06-17T18:23:48.248Z,30.80
2023-06-17T18:26:37.651Z,30.90
2023-06-17T18:29:25.175Z,30.50
2023-06-17T18:32:12.794Z,30.50
2023-06-17T18:35:01.589Z,30.30
2023-06-17T18:37:49.232Z,30.20
2023-06-17T18:40:36.824Z,30.20
2023-06-17T18:43:24.281Z,30.00
2023-06-17T18:46:11.855Z,30.00
2023-06-17T18:48:59.289Z,29.90
2023-06-17T18:51:46.908Z,29.70
2023-06-17T18:54:34.459Z,29.50
2023-06-17T18:57:22.418Z,29.50
2023-06-17T19:00:11.439Z,29.30
2023-06-17T19:02:59.094Z,29.10
2023-06-17T19:05:46.691Z,28.90
2023-06-17T19:08:34.582Z,29.00
2023-06-17T19:11:22.126Z,28.90
2023-06-17T19:14:09.636Z,29.00
2023-06-17T19:16:57.122Z,28.80
2023-06-17T19:19:47.798Z,28.90
2023-06-17T19:22:38.213Z,28.50
2023-06-17T19:25:27.173Z,28.30
2023-06-17T19:28:14.716Z,28.30
2023-06-17T19:31:02.304Z,28.40
2023-06-17T19:33:49.838Z,28.20
2023-06-17T19:36:37.610Z,28.10
2023-06-17T19:39:25.084Z,28.10
2023-06-17T19:42:12.787Z,28.10
2023-06-17T19:45:00.280Z,28.00
2023-06-17T19:47:48.492Z,28.00
2023-06-17T19:50:36.898Z,28.00
2023-06-17T19:53:24.518Z,27.80
2023-06-17T19:56:12.467Z,27.70
2023-06-17T19:59:00.117Z,27.50
2023-06-17T20:01:47.995Z,27.50
2023-06-17T20:04:35.729Z,27.40
2023-06-17T20:07:23.357Z,27.30
2023-06-17T20:10:11.129Z,27.30
2023-06-17T20:12:59.138Z,27.20
2023-06-17T20:15:47.764Z,27.30
2023-06-17T20:18:35.503Z,27.30
2023-06-17T20:21:23.318Z,26.90
2023-06-17T20:24:11.037Z,27.00
2023-06-17T20:26:59.397Z,27.10
2023-06-17T20:29:47.893Z,27.00
2023-06-17T20:32:35.744Z,26.70
2023-06-17T20:35:23.245Z,27.00
2023-06-17T20:38:10.813Z,26.90
2023-06-17T20:40:58.420Z,26.90
2023-06-17T20:43:46.102Z,26.80
2023-06-17T20:46:33.858Z,26.80
2023-06-17T20:49:21.387Z,26.70
2023-06-17T20:52:09.261Z,26.60
2023-06-17T20:54:56.811Z,26.70
2023-06-17T20:57:45.011Z,26.50
2023-06-17T21:00:32.552Z,26.60
2023-06-17T21:03:20.150Z,26.40
2023-06-17T21:06:08.050Z,26.30
2023-06-17T21:08:55.673Z,26.10
2023-06-17T21:11:43.257Z,25.90
2023-06-17T21:14:32.935Z,25.50
2023-06-17T21:17:20.633Z,25.30
2023-06-17T21:20:10.161Z,25.20
2023-06-17T21:22:57.911Z,25.10
2023-06-17T21:25:45.529Z,25.10
2023-06-17T21:28:33.023Z,25.00
2023-06-17T21:31:20.735Z,24.80
2023-06-17T21:34:08.283Z,24.70
2023-06-17T21:36:57.208Z,24.50
2023-06-17T21:39:44.751Z,24.30
2023-06-17T21:42:32.231Z,24.30
2023-06-17T21:45:19.753Z,24.20
2023-06-17T21:48:07.450Z,24.00
2023-06-17T21:50:55.203Z,24.00
2023-06-17T21:53:42.897Z,24.00
2023-06-17T21:56:31.301Z,23.90
2023-06-17T21:59:18.792Z,23.90
2023-06-17T22:02:06.547Z,23.60
2023-06-17T22:04:54.058Z,23.50
2023-06-17T22:07:41.561Z,23.60
2023-06-17T22:10:29.157Z,23.50
2023-06-17T22:13:16.752Z,23.50
2023-06-17T22:16:05.074Z,23.40
2023-06-17T22:18:52.831Z,23.40
2023-06-17T22:21:40.876Z,23.40
2023-06-17T22:24:28.383Z,23.40
2023-06-17T22:27:17.056Z,23.30
2023-06-17T22:30:05.636Z,23.30
2023-06-17T22:32:54.511Z,23.30
2023-06-17T22:35:42.175Z,23.20
2023-06-17T22:38:29.755Z,23.10
2023-06-17T22:41:17.450Z,23.00
2023-06-17T22:44:05.146Z,22.90
2023-06-17T22:46:52.703Z,23.00
2023-06-17T22:49:40.381Z,22.90
2023-06-17T22:52:28.133Z,22.90
2023-06-17T22:55:16.082Z,22.80
2023-06-17T22:58:03.988Z,22.90
2023-06-17T23:00:52.841Z,22.90
2023-06-17T23:03:40.676Z,22.90
2023-06-17T23:06:28.309Z,22.80
2023-06-17T23:09:15.934Z,22.70
2023-06-17T23:12:03.719Z,22.60
2023-06-17T23:14:51.224Z,22.50
2023-06-17T23:17:39.356Z,22.40
2023-06-17T23:20:26.926Z,22.40
2023-06-17T23:23:17.136Z,22.30
2023-06-17T23:26:04.667Z,22.20
2023-06-17T23:28:53.267Z,22.20
2023-06-17T23:31:41.046Z,22.20
2023-06-17T23:34:28.561Z,22.10
2023-06-17T23:37:21.511Z,21.90
2023-06-17T23:40:09.964Z,21.90
2023-06-17T23:42:57.596Z,21.90
2023-06-17T23:45:46.308Z,21.90
2023-06-17T23:48:33.925Z,21.90
2023-06-17T23:51:21.986Z,21.90
2023-06-17T23:54:09.644Z,21.90
2023-06-17T23:56:57.247Z,21.80
2023-06-17T23:59:44.719Z,21.60
